sensor_id;sensor_type;location;lat;lon;timestamp;P1;durP1;ratioP1;P2;durP2;ratioP2
25175;SDS011;13135;55.166;61.286;2023-08-06T00:00:33;11.43;;;8.90;;
25175;SDS011;13135;55.166;61.286;2023-08-06T00:03:18;12.85;;;9.35;;
25175;SDS011;13135;55.166;61.286;2023-08-06T00:06:04;11.63;;;9.30;;
25175;SDS011;13135;55.166;61.286;2023-08-06T00:08:49;12.93;;;9.03;;
25175;SDS011;13135;55.166;61.286;2023-08-06T00:11:34;12.00;;;9.50;;
25175;SDS011;13135;55.166;61.286;2023-08-06T00:14:21;13.80;;;10.07;;
25175;SDS011;13135;55.166;61.286;2023-08-06T00:17:06;13.97;;;9.97;;
25175;SDS011;13135;55.166;61.286;2023-08-06T00:19:51;14.17;;;10.33;;
25175;SDS011;13135;55.166;61.286;2023-08-06T00:22:36;13.23;;;10.15;;
25175;SDS011;13135;55.166;61.286;2023-08-06T00:25:21;14.90;;;9.30;;
25175;SDS011;13135;55.166;61.286;2023-08-06T00:28:04;13.10;;;10.23;;
25175;SDS011;13135;55.166;61.286;2023-08-06T00:30:53;15.87;;;10.10;;
25175;SDS011;13135;55.166;61.286;2023-08-06T00:33:38;15.63;;;11.27;;
25175;SDS011;13135;55.166;61.286;2023-08-06T00:36:25;15.63;;;11.40;;
25175;SDS011;13135;55.166;61.286;2023-08-06T00:39:07;15.10;;;10.87;;
25175;SDS011;13135;55.166;61.286;2023-08-06T00:41:52;14.27;;;11.52;;
25175;SDS011;13135;55.166;61.286;2023-08-06T00:44:37;15.43;;;11.07;;
25175;SDS011;13135;55.166;61.286;2023-08-06T00:47:22;12.20;;;10.60;;
25175;SDS011;13135;55.166;61.286;2023-08-06T00:50:07;13.30;;;10.53;;
25175;SDS011;13135;55.166;61.286;2023-08-06T00:52:52;12.60;;;10.48;;
25175;SDS011;13135;55.166;61.286;2023-08-06T00:55:37;14.37;;;10.60;;
25175;SDS011;13135;55.166;61.286;2023-08-06T00:58:22;14.23;;;10.13;;
25175;SDS011;13135;55.166;61.286;2023-08-06T01:01:07;15.83;;;10.70;;
25175;SDS011;13135;55.166;61.286;2023-08-06T01:03:52;15.83;;;10.87;;
25175;SDS011;13135;55.166;61.286;2023-08-06T01:06:44;15.20;;;10.93;;
25175;SDS011;13135;55.166;61.286;2023-08-06T01:12:25;13.30;;;11.30;;
25175;SDS011;13135;55.166;61.286;2023-08-06T01:15:11;15.60;;;11.43;;
25175;SDS011;13135;55.166;61.286;2023-08-06T01:18:04;15.63;;;11.73;;
25175;SDS011;13135;55.166;61.286;2023-08-06T01:20:49;13.97;;;10.80;;
25175;SDS011;13135;55.166;61.286;2023-08-06T01:23:34;17.40;;;10.97;;
25175;SDS011;13135;55.166;61.286;2023-08-06T01:26:21;14.93;;;10.67;;
25175;SDS011;13135;55.166;61.286;2023-08-06T01:29:10;15.70;;;11.47;;
25175;SDS011;13135;55.166;61.286;2023-08-06T01:31:59;16.53;;;11.10;;
25175;SDS011;13135;55.166;61.286;2023-08-06T01:34:40;15.67;;;11.40;;
25175;SDS011;13135;55.166;61.286;2023-08-06T01:37:24;16.03;;;11.70;;
25175;SDS011;13135;55.166;61.286;2023-08-06T01:40:10;16.80;;;12.53;;
25175;SDS011;13135;55.166;61.286;2023-08-06T01:42:56;16.03;;;11.47;;
25175;SDS011;13135;55.166;61.286;2023-08-06T01:45:41;13.73;;;11.27;;
25175;SDS011;13135;55.166;61.286;2023-08-06T01:48:26;16.23;;;11.80;;
25175;SDS011;13135;55.166;61.286;2023-08-06T01:51:10;15.47;;;11.60;;
25175;SDS011;13135;55.166;61.286;2023-08-06T01:53:55;14.00;;;11.00;;
25175;SDS011;13135;55.166;61.286;2023-08-06T01:56:40;15.30;;;11.53;;
25175;SDS011;13135;55.166;61.286;2023-08-06T01:59:25;14.48;;;11.70;;
25175;SDS011;13135;55.166;61.286;2023-08-06T02:02:10;16.07;;;11.53;;
25175;SDS011;13135;55.166;61.286;2023-08-06T02:04:55;14.55;;;10.88;;
25175;SDS011;13135;55.166;61.286;2023-08-06T02:07:40;14.80;;;11.27;;
25175;SDS011;13135;55.166;61.286;2023-08-06T02:10:25;12.60;;;10.45;;
25175;SDS011;13135;55.166;61.286;2023-08-06T02:13:09;13.63;;;10.83;;
25175;SDS011;13135;55.166;61.286;2023-08-06T02:15:53;13.70;;;10.50;;
25175;SDS011;13135;55.166;61.286;2023-08-06T02:18:38;11.88;;;10.00;;
25175;SDS011;13135;55.166;61.286;2023-08-06T02:21:23;14.83;;;11.37;;
25175;SDS011;13135;55.166;61.286;2023-08-06T02:24:10;14.95;;;11.70;;
25175;SDS011;13135;55.166;61.286;2023-08-06T02:26:55;12.80;;;10.60;;
25175;SDS011;13135;55.166;61.286;2023-08-06T02:29:40;16.60;;;12.05;;
25175;SDS011;13135;55.166;61.286;2023-08-06T02:32:30;14.52;;;11.60;;
25175;SDS011;13135;55.166;61.286;2023-08-06T02:35:39;14.52;;;11.55;;
25175;SDS011;13135;55.166;61.286;2023-08-06T02:38:24;14.75;;;11.32;;
25175;SDS011;13135;55.166;61.286;2023-08-06T02:41:09;15.50;;;10.35;;
25175;SDS011;13135;55.166;61.286;2023-08-06T02:43:56;12.25;;;10.30;;
25175;SDS011;13135;55.166;61.286;2023-08-06T02:46:40;13.82;;;10.20;;
25175;SDS011;13135;55.166;61.286;2023-08-06T02:49:25;14.07;;;10.55;;
25175;SDS011;13135;55.166;61.286;2023-08-06T02:52:12;17.73;;;13.35;;
25175;SDS011;13135;55.166;61.286;2023-08-06T02:54:57;11.45;;;9.95;;
25175;SDS011;13135;55.166;61.286;2023-08-06T02:57:42;12.40;;;9.90;;
25175;SDS011;13135;55.166;61.286;2023-08-06T03:00:27;11.80;;;9.43;;
25175;SDS011;13135;55.166;61.286;2023-08-06T03:03:12;12.35;;;9.82;;
25175;SDS011;13135;55.166;61.286;2023-08-06T03:05:54;12.20;;;9.55;;
25175;SDS011;13135;55.166;61.286;2023-08-06T03:08:40;12.98;;;9.98;;
25175;SDS011;13135;55.166;61.286;2023-08-06T03:11:25;11.95;;;9.15;;
25175;SDS011;13135;55.166;61.286;2023-08-06T03:14:10;10.38;;;8.57;;
25175;SDS011;13135;55.166;61.286;2023-08-06T03:16:55;11.30;;;9.00;;
25175;SDS011;13135;55.166;61.286;2023-08-06T03:19:39;12.37;;;8.95;;
25175;SDS011;13135;55.166;61.286;2023-08-06T03:22:23;10.35;;;8.55;;
25175;SDS011;13135;55.166;61.286;2023-08-06T03:25:08;13.73;;;9.43;;
25175;SDS011;13135;55.166;61.286;2023-08-06T03:27:53;12.52;;;8.77;;
25175;SDS011;13135;55.166;61.286;2023-08-06T03:30:37;10.70;;;9.23;;
25175;SDS011;13135;55.166;61.286;2023-08-06T03:33:22;10.68;;;8.90;;
25175;SDS011;13135;55.166;61.286;2023-08-06T03:36:07;11.75;;;9.30;;
25175;SDS011;13135;55.166;61.286;2023-08-06T03:38:51;10.15;;;8.88;;
25175;SDS011;13135;55.166;61.286;2023-08-06T03:41:35;11.18;;;9.13;;
25175;SDS011;13135;55.166;61.286;2023-08-06T03:44:20;10.15;;;9.13;;
25175;SDS011;13135;55.166;61.286;2023-08-06T03:47:03;12.23;;;9.73;;
25175;SDS011;13135;55.166;61.286;2023-08-06T03:49:47;11.77;;;9.43;;
25175;SDS011;13135;55.166;61.286;2023-08-06T03:52:28;10.68;;;8.77;;
25175;SDS011;13135;55.166;61.286;2023-08-06T03:55:13;10.75;;;9.07;;
25175;SDS011;13135;55.166;61.286;2023-08-06T03:57:58;11.27;;;9.00;;
25175;SDS011;13135;55.166;61.286;2023-08-06T04:00:43;9.68;;;8.68;;
25175;SDS011;13135;55.166;61.286;2023-08-06T04:03:28;10.40;;;8.48;;
25175;SDS011;13135;55.166;61.286;2023-08-06T04:06:13;10.40;;;9.15;;
25175;SDS011;13135;55.166;61.286;2023-08-06T04:08:58;10.88;;;9.20;;
25175;SDS011;13135;55.166;61.286;2023-08-06T04:11:42;9.45;;;8.45;;
25175;SDS011;13135;55.166;61.286;2023-08-06T04:14:27;9.82;;;8.43;;
25175;SDS011;13135;55.166;61.286;2023-08-06T04:17:12;9.57;;;8.50;;
25175;SDS011;13135;55.166;61.286;2023-08-06T04:19:57;10.93;;;8.60;;
25175;SDS011;13135;55.166;61.286;2023-08-06T04:22:42;9.98;;;8.45;;
25175;SDS011;13135;55.166;61.286;2023-08-06T04:25:27;10.38;;;9.25;;
25175;SDS011;13135;55.166;61.286;2023-08-06T04:28:12;9.95;;;8.93;;
25175;SDS011;13135;55.166;61.286;2023-08-06T04:30:58;9.90;;;8.18;;
25175;SDS011;13135;55.166;61.286;2023-08-06T04:33:42;9.00;;;8.10;;
25175;SDS011;13135;55.166;61.286;2023-08-06T04:36:27;10.27;;;7.82;;
25175;SDS011;13135;55.166;61.286;2023-08-06T04:39:12;9.50;;;8.48;;
25175;SDS011;13135;55.166;61.286;2023-08-06T04:41:56;9.65;;;8.18;;
25175;SDS011;13135;55.166;61.286;2023-08-06T04:44:41;9.57;;;7.80;;
25175;SDS011;13135;55.166;61.286;2023-08-06T04:47:25;10.80;;;7.50;;
25175;SDS011;13135;55.166;61.286;2023-08-06T04:50:10;10.13;;;8.00;;
25175;SDS011;13135;55.166;61.286;2023-08-06T04:52:54;9.32;;;8.30;;
25175;SDS011;13135;55.166;61.286;2023-08-06T04:55:39;10.30;;;7.87;;
25175;SDS011;13135;55.166;61.286;2023-08-06T04:58:23;10.27;;;8.20;;
25175;SDS011;13135;55.166;61.286;2023-08-06T05:01:08;9.40;;;8.32;;
25175;SDS011;13135;55.166;61.286;2023-08-06T05:03:53;10.93;;;7.87;;
25175;SDS011;13135;55.166;61.286;2023-08-06T05:06:38;9.65;;;8.30;;
25175;SDS011;13135;55.166;61.286;2023-08-06T05:09:22;10.73;;;9.10;;
25175;SDS011;13135;55.166;61.286;2023-08-06T05:15:20;10.20;;;9.07;;
25175;SDS011;13135;55.166;61.286;2023-08-06T05:18:05;10.30;;;8.98;;
25175;SDS011;13135;55.166;61.286;2023-08-06T05:20:49;10.73;;;8.57;;
25175;SDS011;13135;55.166;61.286;2023-08-06T05:23:34;10.52;;;8.90;;
25175;SDS011;13135;55.166;61.286;2023-08-06T05:26:19;9.55;;;8.55;;
25175;SDS011;13135;55.166;61.286;2023-08-06T05:29:04;12.82;;;9.00;;
25175;SDS011;13135;55.166;61.286;2023-08-06T05:31:48;10.05;;;8.60;;
25175;SDS011;13135;55.166;61.286;2023-08-06T05:34:33;10.68;;;9.23;;
25175;SDS011;13135;55.166;61.286;2023-08-06T05:37:18;9.82;;;8.82;;
25175;SDS011;13135;55.166;61.286;2023-08-06T05:40:02;10.55;;;8.93;;
25175;SDS011;13135;55.166;61.286;2023-08-06T05:42:48;11.25;;;8.65;;
25175;SDS011;13135;55.166;61.286;2023-08-06T05:45:33;10.48;;;9.38;;
25175;SDS011;13135;55.166;61.286;2023-08-06T05:48:20;10.10;;;8.73;;
25175;SDS011;13135;55.166;61.286;2023-08-06T05:51:05;11.20;;;8.65;;
25175;SDS011;13135;55.166;61.286;2023-08-06T05:53:48;10.68;;;8.55;;
25175;SDS011;13135;55.166;61.286;2023-08-06T05:56:33;10.00;;;8.98;;
25175;SDS011;13135;55.166;61.286;2023-08-06T05:59:18;10.63;;;9.10;;
25175;SDS011;13135;55.166;61.286;2023-08-06T06:02:02;11.90;;;9.43;;
25175;SDS011;13135;55.166;61.286;2023-08-06T06:04:47;12.23;;;10.18;;
25175;SDS011;13135;55.166;61.286;2023-08-06T06:07:32;11.55;;;10.05;;
25175;SDS011;13135;55.166;61.286;2023-08-06T06:10:17;12.10;;;10.25;;
25175;SDS011;13135;55.166;61.286;2023-08-06T06:13:02;13.85;;;10.77;;
25175;SDS011;13135;55.166;61.286;2023-08-06T06:15:47;11.35;;;10.18;;
25175;SDS011;13135;55.166;61.286;2023-08-06T06:18:31;13.32;;;10.95;;
25175;SDS011;13135;55.166;61.286;2023-08-06T06:21:16;12.13;;;10.48;;
25175;SDS011;13135;55.166;61.286;2023-08-06T06:24:01;10.82;;;9.73;;
25175;SDS011;13135;55.166;61.286;2023-08-06T06:26:47;12.75;;;10.35;;
25175;SDS011;13135;55.166;61.286;2023-08-06T06:29:32;11.55;;;10.27;;
25175;SDS011;13135;55.166;61.286;2023-08-06T06:32:17;13.00;;;10.23;;
25175;SDS011;13135;55.166;61.286;2023-08-06T06:35:02;14.15;;;10.32;;
25175;SDS011;13135;55.166;61.286;2023-08-06T06:37:46;12.35;;;10.55;;
25175;SDS011;13135;55.166;61.286;2023-08-06T06:40:31;11.80;;;10.13;;
25175;SDS011;13135;55.166;61.286;2023-08-06T06:43:16;11.30;;;10.13;;
25175;SDS011;13135;55.166;61.286;2023-08-06T06:46:01;12.73;;;9.55;;
25175;SDS011;13135;55.166;61.286;2023-08-06T06:48:42;12.20;;;9.57;;
25175;SDS011;13135;55.166;61.286;2023-08-06T06:51:27;10.95;;;9.65;;
25175;SDS011;13135;55.166;61.286;2023-08-06T06:54:12;10.40;;;9.27;;
25175;SDS011;13135;55.166;61.286;2023-08-06T06:56:57;11.68;;;9.60;;
25175;SDS011;13135;55.166;61.286;2023-08-06T06:59:42;10.60;;;9.50;;
25175;SDS011;13135;55.166;61.286;2023-08-06T07:02:26;11.90;;;9.68;;
25175;SDS011;13135;55.166;61.286;2023-08-06T07:05:11;11.85;;;9.65;;
25175;SDS011;13135;55.166;61.286;2023-08-06T07:07:56;10.48;;;9.23;;
25175;SDS011;13135;55.166;61.286;2023-08-06T07:10:41;10.15;;;9.07;;
25175;SDS011;13135;55.166;61.286;2023-08-06T07:13:26;10.60;;;9.32;;
25175;SDS011;13135;55.166;61.286;2023-08-06T07:16:11;12.57;;;10.18;;
25175;SDS011;13135;55.166;61.286;2023-08-06T07:18:56;11.02;;;9.40;;
25175;SDS011;13135;55.166;61.286;2023-08-06T07:21:41;10.63;;;7.80;;
25175;SDS011;13135;55.166;61.286;2023-08-06T07:24:26;9.38;;;7.90;;
25175;SDS011;13135;55.166;61.286;2023-08-06T07:27:10;8.85;;;7.37;;
25175;SDS011;13135;55.166;61.286;2023-08-06T07:29:54;8.50;;;7.60;;
25175;SDS011;13135;55.166;61.286;2023-08-06T07:32:39;9.95;;;7.45;;
25175;SDS011;13135;55.166;61.286;2023-08-06T07:35:24;9.48;;;7.15;;
25175;SDS011;13135;55.166;61.286;2023-08-06T07:38:10;9.38;;;7.80;;
25175;SDS011;13135;55.166;61.286;2023-08-06T07:40:54;6.93;;;6.22;;
25175;SDS011;13135;55.166;61.286;2023-08-06T07:43:38;9.48;;;7.35;;
25175;SDS011;13135;55.166;61.286;2023-08-06T07:46:25;9.43;;;8.02;;
25175;SDS011;13135;55.166;61.286;2023-08-06T07:49:09;10.85;;;8.95;;
25175;SDS011;13135;55.166;61.286;2023-08-06T07:51:54;11.55;;;9.27;;
25175;SDS011;13135;55.166;61.286;2023-08-06T07:54:39;9.05;;;8.07;;
25175;SDS011;13135;55.166;61.286;2023-08-06T07:57:24;9.13;;;6.95;;
25175;SDS011;13135;55.166;61.286;2023-08-06T08:00:08;10.68;;;6.25;;
25175;SDS011;13135;55.166;61.286;2023-08-06T08:02:54;7.87;;;5.78;;
25175;SDS011;13135;55.166;61.286;2023-08-06T08:05:39;8.32;;;5.95;;
25175;SDS011;13135;55.166;61.286;2023-08-06T08:08:24;6.32;;;5.35;;
25175;SDS011;13135;55.166;61.286;2023-08-06T08:11:09;7.22;;;5.07;;
25175;SDS011;13135;55.166;61.286;2023-08-06T08:13:54;6.20;;;4.47;;
25175;SDS011;13135;55.166;61.286;2023-08-06T08:16:38;6.25;;;4.47;;
25175;SDS011;13135;55.166;61.286;2023-08-06T08:19:23;5.80;;;4.10;;
25175;SDS011;13135;55.166;61.286;2023-08-06T08:22:08;6.18;;;4.30;;
25175;SDS011;13135;55.166;61.286;2023-08-06T08:24:53;5.15;;;4.25;;
25175;SDS011;13135;55.166;61.286;2023-08-06T08:27:37;4.93;;;3.87;;
25175;SDS011;13135;55.166;61.286;2023-08-06T08:30:22;5.50;;;3.87;;
25175;SDS011;13135;55.166;61.286;2023-08-06T08:33:04;3.80;;;3.25;;
25175;SDS011;13135;55.166;61.286;2023-08-06T08:35:48;3.50;;;2.78;;
25175;SDS011;13135;55.166;61.286;2023-08-06T08:38:32;3.60;;;2.90;;
25175;SDS011;13135;55.166;61.286;2023-08-06T08:41:17;3.30;;;2.45;;
25175;SDS011;13135;55.166;61.286;2023-08-06T08:44:02;3.17;;;2.30;;
25175;SDS011;13135;55.166;61.286;2023-08-06T08:46:46;3.78;;;2.22;;
25175;SDS011;13135;55.166;61.286;2023-08-06T08:49:30;3.42;;;2.30;;
25175;SDS011;13135;55.166;61.286;2023-08-06T08:52:14;2.80;;;2.28;;
25175;SDS011;13135;55.166;61.286;2023-08-06T08:54:58;3.50;;;2.45;;
25175;SDS011;13135;55.166;61.286;2023-08-06T08:57:43;2.78;;;2.40;;
25175;SDS011;13135;55.166;61.286;2023-08-06T09:00:28;5.07;;;2.67;;
25175;SDS011;13135;55.166;61.286;2023-08-06T09:03:13;3.12;;;2.58;;
25175;SDS011;13135;55.166;61.286;2023-08-06T09:05:57;2.92;;;2.45;;
25175;SDS011;13135;55.166;61.286;2023-08-06T09:08:46;3.10;;;2.75;;
25175;SDS011;13135;55.166;61.286;2023-08-06T09:11:27;4.53;;;2.60;;
25175;SDS011;13135;55.166;61.286;2023-08-06T09:14:12;4.70;;;2.90;;
25175;SDS011;13135;55.166;61.286;2023-08-06T09:16:56;4.07;;;3.10;;
25175;SDS011;13135;55.166;61.286;2023-08-06T09:19:42;4.62;;;3.30;;
25175;SDS011;13135;55.166;61.286;2023-08-06T09:22:33;8.43;;;3.35;;
25175;SDS011;13135;55.166;61.286;2023-08-06T09:25:11;3.97;;;3.03;;
25175;SDS011;13135;55.166;61.286;2023-08-06T09:27:56;4.87;;;3.08;;
25175;SDS011;13135;55.166;61.286;2023-08-06T09:30:41;4.95;;;3.20;;
25175;SDS011;13135;55.166;61.286;2023-08-06T09:33:26;4.22;;;3.22;;
25175;SDS011;13135;55.166;61.286;2023-08-06T09:36:11;6.78;;;4.15;;
25175;SDS011;13135;55.166;61.286;2023-08-06T09:38:56;5.50;;;3.97;;
25175;SDS011;13135;55.166;61.286;2023-08-06T09:41:42;5.75;;;3.95;;
25175;SDS011;13135;55.166;61.286;2023-08-06T09:44:26;4.87;;;3.90;;
25175;SDS011;13135;55.166;61.286;2023-08-06T09:47:09;5.20;;;4.20;;
25175;SDS011;13135;55.166;61.286;2023-08-06T09:49:54;6.85;;;4.00;;
25175;SDS011;13135;55.166;61.286;2023-08-06T09:52:39;7.03;;;4.90;;
25175;SDS011;13135;55.166;61.286;2023-08-06T09:55:23;5.10;;;4.47;;
25175;SDS011;13135;55.166;61.286;2023-08-06T09:58:08;6.45;;;4.68;;
25175;SDS011;13135;55.166;61.286;2023-08-06T10:00:53;7.12;;;4.22;;
25175;SDS011;13135;55.166;61.286;2023-08-06T10:03:38;6.18;;;3.97;;
25175;SDS011;13135;55.166;61.286;2023-08-06T10:06:22;8.05;;;4.22;;
25175;SDS011;13135;55.166;61.286;2023-08-06T10:09:08;6.03;;;3.92;;
25175;SDS011;13135;55.166;61.286;2023-08-06T10:11:52;4.07;;;3.10;;
25175;SDS011;13135;55.166;61.286;2023-08-06T10:14:36;5.60;;;4.40;;
25175;SDS011;13135;55.166;61.286;2023-08-06T10:17:21;5.00;;;3.40;;
25175;SDS011;13135;55.166;61.286;2023-08-06T10:20:07;4.10;;;3.05;;
25175;SDS011;13135;55.166;61.286;2023-08-06T10:23:00;4.43;;;3.28;;
25175;SDS011;13135;55.166;61.286;2023-08-06T10:25:43;3.42;;;2.85;;
25175;SDS011;13135;55.166;61.286;2023-08-06T10:28:31;3.08;;;2.55;;
25175;SDS011;13135;55.166;61.286;2023-08-06T10:31:09;2.45;;;2.22;;
25175;SDS011;13135;55.166;61.286;2023-08-06T10:33:54;4.00;;;2.80;;
25175;SDS011;13135;55.166;61.286;2023-08-06T10:36:39;2.90;;;2.50;;
25175;SDS011;13135;55.166;61.286;2023-08-06T10:39:24;3.90;;;2.40;;
25175;SDS011;13135;55.166;61.286;2023-08-06T10:42:19;4.75;;;3.10;;
25175;SDS011;13135;55.166;61.286;2023-08-06T10:47:56;3.05;;;2.53;;
25175;SDS011;13135;55.166;61.286;2023-08-06T10:50:42;7.25;;;3.05;;
25175;SDS011;13135;55.166;61.286;2023-08-06T10:53:27;3.08;;;2.75;;
25175;SDS011;13135;55.166;61.286;2023-08-06T10:56:13;4.32;;;2.65;;
25175;SDS011;13135;55.166;61.286;2023-08-06T10:58:55;3.92;;;2.70;;
25175;SDS011;13135;55.166;61.286;2023-08-06T11:01:39;3.08;;;2.50;;
25175;SDS011;13135;55.166;61.286;2023-08-06T11:04:24;4.18;;;2.90;;
25175;SDS011;13135;55.166;61.286;2023-08-06T11:07:09;3.03;;;2.72;;
25175;SDS011;13135;55.166;61.286;2023-08-06T11:10:00;2.80;;;2.50;;
25175;SDS011;13135;55.166;61.286;2023-08-06T11:12:38;2.53;;;2.20;;
25175;SDS011;13135;55.166;61.286;2023-08-06T11:15:23;1.87;;;1.67;;
25175;SDS011;13135;55.166;61.286;2023-08-06T11:18:08;1.90;;;1.70;;
25175;SDS011;13135;55.166;61.286;2023-08-06T11:20:53;2.17;;;1.60;;
25175;SDS011;13135;55.166;61.286;2023-08-06T11:23:38;1.60;;;1.50;;
25175;SDS011;13135;55.166;61.286;2023-08-06T11:26:23;2.03;;;1.52;;
25175;SDS011;13135;55.166;61.286;2023-08-06T11:29:08;2.08;;;1.77;;
25175;SDS011;13135;55.166;61.286;2023-08-06T11:31:51;1.50;;;1.40;;
25175;SDS011;13135;55.166;61.286;2023-08-06T11:34:36;2.80;;;1.45;;
25175;SDS011;13135;55.166;61.286;2023-08-06T11:37:23;1.58;;;1.30;;
25175;SDS011;13135;55.166;61.286;2023-08-06T11:40:08;1.50;;;1.37;;
25175;SDS011;13135;55.166;61.286;2023-08-06T11:42:56;2.12;;;1.58;;
25175;SDS011;13135;55.166;61.286;2023-08-06T11:45:41;2.75;;;1.80;;
25175;SDS011;13135;55.166;61.286;2023-08-06T11:48:27;1.92;;;1.40;;
25175;SDS011;13135;55.166;61.286;2023-08-06T11:51:12;1.90;;;1.48;;
25175;SDS011;13135;55.166;61.286;2023-08-06T11:53:57;1.70;;;1.60;;
25175;SDS011;13135;55.166;61.286;2023-08-06T11:56:42;1.60;;;1.50;;
25175;SDS011;13135;55.166;61.286;2023-08-06T11:59:26;2.00;;;1.50;;
25175;SDS011;13135;55.166;61.286;2023-08-06T12:02:11;3.30;;;1.85;;
25175;SDS011;13135;55.166;61.286;2023-08-06T12:04:59;4.00;;;1.65;;
25175;SDS011;13135;55.166;61.286;2023-08-06T12:07:44;2.72;;;1.60;;
25175;SDS011;13135;55.166;61.286;2023-08-06T12:10:29;3.90;;;2.67;;
25175;SDS011;13135;55.166;61.286;2023-08-06T12:13:13;1.73;;;1.52;;
25175;SDS011;13135;55.166;61.286;2023-08-06T12:15:58;3.47;;;1.95;;
25175;SDS011;13135;55.166;61.286;2023-08-06T12:18:43;2.62;;;1.75;;
25175;SDS011;13135;55.166;61.286;2023-08-06T12:21:28;2.10;;;1.60;;
25175;SDS011;13135;55.166;61.286;2023-08-06T12:24:13;4.00;;;2.03;;
25175;SDS011;13135;55.166;61.286;2023-08-06T12:26:57;2.42;;;1.92;;
25175;SDS011;13135;55.166;61.286;2023-08-06T12:29:43;2.80;;;1.90;;
25175;SDS011;13135;55.166;61.286;2023-08-06T12:32:28;2.45;;;1.70;;
25175;SDS011;13135;55.166;61.286;2023-08-06T12:35:13;2.65;;;2.10;;
25175;SDS011;13135;55.166;61.286;2023-08-06T12:37:58;5.07;;;2.20;;
25175;SDS011;13135;55.166;61.286;2023-08-06T12:40:41;2.47;;;2.05;;
25175;SDS011;13135;55.166;61.286;2023-08-06T12:43:26;2.55;;;2.03;;
25175;SDS011;13135;55.166;61.286;2023-08-06T12:46:11;3.03;;;2.42;;
25175;SDS011;13135;55.166;61.286;2023-08-06T12:48:55;3.75;;;2.62;;
25175;SDS011;13135;55.166;61.286;2023-08-06T12:51:41;3.40;;;2.62;;
25175;SDS011;13135;55.166;61.286;2023-08-06T12:54:26;3.33;;;2.62;;
25175;SDS011;13135;55.166;61.286;2023-08-06T12:57:11;7.00;;;5.15;;
25175;SDS011;13135;55.166;61.286;2023-08-06T12:59:57;2.97;;;2.78;;
25175;SDS011;13135;55.166;61.286;2023-08-06T13:02:42;3.50;;;3.20;;
25175;SDS011;13135;55.166;61.286;2023-08-06T13:05:26;5.12;;;3.50;;
25175;SDS011;13135;55.166;61.286;2023-08-06T13:08:11;5.45;;;3.28;;
25175;SDS011;13135;55.166;61.286;2023-08-06T13:10:53;5.30;;;3.40;;
25175;SDS011;13135;55.166;61.286;2023-08-06T13:13:37;4.00;;;3.50;;
25175;SDS011;13135;55.166;61.286;2023-08-06T13:16:22;5.03;;;3.12;;
25175;SDS011;13135;55.166;61.286;2023-08-06T13:19:07;5.60;;;3.70;;
25175;SDS011;13135;55.166;61.286;2023-08-06T13:21:58;4.15;;;3.62;;
25175;SDS011;13135;55.166;61.286;2023-08-06T13:24:43;3.97;;;3.50;;
25175;SDS011;13135;55.166;61.286;2023-08-06T13:27:28;4.60;;;3.80;;
25175;SDS011;13135;55.166;61.286;2023-08-06T13:30:12;4.20;;;3.78;;
25175;SDS011;13135;55.166;61.286;2023-08-06T13:32:57;5.40;;;4.00;;
25175;SDS011;13135;55.166;61.286;2023-08-06T13:35:42;4.90;;;3.90;;
25175;SDS011;13135;55.166;61.286;2023-08-06T13:38:27;5.22;;;4.03;;
25175;SDS011;13135;55.166;61.286;2023-08-06T13:41:12;4.45;;;3.92;;
25175;SDS011;13135;55.166;61.286;2023-08-06T13:43:57;4.70;;;4.15;;
25175;SDS011;13135;55.166;61.286;2023-08-06T13:46:42;5.35;;;4.30;;
25175;SDS011;13135;55.166;61.286;2023-08-06T13:49:25;8.02;;;4.70;;
25175;SDS011;13135;55.166;61.286;2023-08-06T13:52:10;9.63;;;4.97;;
25175;SDS011;13135;55.166;61.286;2023-08-06T13:54:55;5.10;;;4.50;;
25175;SDS011;13135;55.166;61.286;2023-08-06T13:57:40;5.55;;;4.28;;
25175;SDS011;13135;55.166;61.286;2023-08-06T14:00:25;4.93;;;4.43;;
25175;SDS011;13135;55.166;61.286;2023-08-06T14:03:10;5.15;;;4.65;;
25175;SDS011;13135;55.166;61.286;2023-08-06T14:05:54;7.03;;;4.32;;
25175;SDS011;13135;55.166;61.286;2023-08-06T14:08:39;6.90;;;4.95;;
25175;SDS011;13135;55.166;61.286;2023-08-06T14:11:24;6.45;;;4.95;;
25175;SDS011;13135;55.166;61.286;2023-08-06T14:14:09;5.80;;;4.95;;
25175;SDS011;13135;55.166;61.286;2023-08-06T14:16:53;8.85;;;5.18;;
25175;SDS011;13135;55.166;61.286;2023-08-06T14:19:38;7.78;;;5.53;;
25175;SDS011;13135;55.166;61.286;2023-08-06T14:22:22;8.93;;;5.65;;
25175;SDS011;13135;55.166;61.286;2023-08-06T14:25:07;8.90;;;5.40;;
25175;SDS011;13135;55.166;61.286;2023-08-06T14:27:51;6.32;;;5.00;;
25175;SDS011;13135;55.166;61.286;2023-08-06T14:30:36;8.15;;;5.40;;
25175;SDS011;13135;55.166;61.286;2023-08-06T14:33:20;6.55;;;5.65;;
25175;SDS011;13135;55.166;61.286;2023-08-06T14:36:05;6.75;;;5.60;;
25175;SDS011;13135;55.166;61.286;2023-08-06T14:38:50;8.38;;;6.03;;
25175;SDS011;13135;55.166;61.286;2023-08-06T14:41:35;7.68;;;5.80;;
25175;SDS011;13135;55.166;61.286;2023-08-06T14:44:20;6.37;;;5.72;;
25175;SDS011;13135;55.166;61.286;2023-08-06T14:47:05;7.32;;;6.30;;
25175;SDS011;13135;55.166;61.286;2023-08-06T14:49:50;9.50;;;6.12;;
25175;SDS011;13135;55.166;61.286;2023-08-06T14:52:34;8.70;;;6.20;;
25175;SDS011;13135;55.166;61.286;2023-08-06T14:55:24;9.65;;;6.72;;
25175;SDS011;13135;55.166;61.286;2023-08-06T14:58:09;7.97;;;6.53;;
25175;SDS011;13135;55.166;61.286;2023-08-06T15:00:54;9.10;;;6.72;;
25175;SDS011;13135;55.166;61.286;2023-08-06T15:03:39;8.60;;;7.40;;
25175;SDS011;13135;55.166;61.286;2023-08-06T15:06:24;9.50;;;8.23;;
25175;SDS011;13135;55.166;61.286;2023-08-06T15:09:08;9.48;;;7.80;;
25175;SDS011;13135;55.166;61.286;2023-08-06T15:11:53;11.45;;;7.12;;
25175;SDS011;13135;55.166;61.286;2023-08-06T15:14:38;9.80;;;7.78;;
25175;SDS011;13135;55.166;61.286;2023-08-06T15:17:23;10.40;;;7.90;;
25175;SDS011;13135;55.166;61.286;2023-08-06T15:20:08;10.10;;;7.65;;
25175;SDS011;13135;55.166;61.286;2023-08-06T15:22:53;10.23;;;7.53;;
25175;SDS011;13135;55.166;61.286;2023-08-06T15:25:38;11.45;;;8.07;;
25175;SDS011;13135;55.166;61.286;2023-08-06T15:28:23;10.15;;;7.90;;
25175;SDS011;13135;55.166;61.286;2023-08-06T15:31:08;12.43;;;8.43;;
25175;SDS011;13135;55.166;61.286;2023-08-06T15:33:53;12.18;;;8.80;;
25175;SDS011;13135;55.166;61.286;2023-08-06T15:36:37;10.82;;;9.00;;
25175;SDS011;13135;55.166;61.286;2023-08-06T15:39:22;10.80;;;8.75;;
25175;SDS011;13135;55.166;61.286;2023-08-06T15:42:08;12.25;;;8.98;;
25175;SDS011;13135;55.166;61.286;2023-08-06T15:44:53;15.15;;;11.65;;
25175;SDS011;13135;55.166;61.286;2023-08-06T15:47:38;11.45;;;8.88;;
25175;SDS011;13135;55.166;61.286;2023-08-06T15:50:22;11.05;;;8.57;;
25175;SDS011;13135;55.166;61.286;2023-08-06T15:53:07;12.20;;;9.02;;
25175;SDS011;13135;55.166;61.286;2023-08-06T15:55:52;11.98;;;8.73;;
25175;SDS011;13135;55.166;61.286;2023-08-06T15:58:37;11.98;;;9.45;;
25175;SDS011;13135;55.166;61.286;2023-08-06T16:01:22;14.38;;;8.70;;
25175;SDS011;13135;55.166;61.286;2023-08-06T16:04:06;12.85;;;9.13;;
25175;SDS011;13135;55.166;61.286;2023-08-06T16:06:51;10.38;;;8.10;;
25175;SDS011;13135;55.166;61.286;2023-08-06T16:09:44;10.80;;;8.82;;
25175;SDS011;13135;55.166;61.286;2023-08-06T16:12:31;10.60;;;8.55;;
25175;SDS011;13135;55.166;61.286;2023-08-06T16:15:17;12.82;;;8.20;;
25175;SDS011;13135;55.166;61.286;2023-08-06T16:18:01;10.50;;;7.93;;